Chicago Midway International Airport (MDW)


Airport Diagram
Current Weather/Forecast (IFR Conditions)
METAR KMDW 252253Z 27012KT 5SM -SN BR OVC009 01/00 A2986 RMK AO2 SLP122 P0000 T00060000
TAF KMDW 252221Z 2522/2624 26009KT 3SM -SNDZ SCT007 OVC010 TEMPO 2522/2524 2SM -SN BKN007 FM260100 27009KT 6SM -DZSN SCT008 OVC010 FM260400 27009KT P6SM BKN007 OVC012 FM261800 26009KT P6SM OVC012

All Charts
General
Chart Name Download
AIRPORT DIAGRAM
TAKEOFF MINIMUMS
ALTERNATE MINIMUMS
HOT SPOT

Departures
Chart Name Download
CICERO TWO
MIDWAY FIVE

Arrivals
Chart Name Download
ENDEE FOUR (RNAV)
ENDEE FOUR (RNAV), CONT.1
FISSK FOUR (RNAV)
GOSHEN SEVEN
MOTIF SIX
MOTIF SIX, CONT.1
PANGG THREE (RNAV)

Approaches
Chart Name Download
ILS OR LOC RWY 13C
ILS OR LOC/DME RWY 04R
ILS OR LOC/DME RWY 31C
RNAV (RNP) X RWY 22L
RNAV (RNP) Y RWY 04R
RNAV (RNP) Y RWY 13C
RNAV (RNP) Y RWY 22L
RNAV (RNP) Y RWY 31C
RNAV (GPS) RWY 04L
RNAV (GPS) RWY 13L
RNAV (GPS) RWY 22R
RNAV (GPS) RWY 31R
RNAV (GPS) Z RWY 04R
RNAV (GPS) Z RWY 13C
RNAV (GPS) Z RWY 22L
RNAV (GPS) Z RWY 31C